Brice, Indiana
Current Conditions -  °F | °C
As of 4:53 PM on Tuesday 21 Oct 2014 (Local Time) from KMIE Reporting Station
Scattered Clouds Scattered Clouds  
Wind Chill: 56°   Ceiling: Unl
Heat Index: 56°   Visibility: 10mi
Dew Point: 42°   Wind: 14mph
Humidity: 60%   Direction: 40°NE
Pressure: 30.1"   Gusts: 22mph
Location:  40.4312°N, 85.0058°W
Report Text: KMIE 212053Z 04012G19KT 10SM FEW031 SCT043 13/06 A3010 RMK AO2 SLP189 T01330056 53008
Loading
Personal Weather Stations






























Interactive Weather Map
Tropical Storm Tracking
New forecast layout! Learn more

10-Day Weather Forecast

Advertisements
Track Severe Weather on mobile